Time;durP1;ratioP1;P1;durP2;ratioP2;P2;SDS_P1;SDS_P2;PMS_P1;PMS_P2;Temp;Humidity;BMP_temperature;BMP_pressure;BME280_temperature;BME280_humidity;BME280_pressure;Samples;Min_cycle;Max_cycle;Signal;HPM_P1;HPM_P2
2023/02/16 00:00:32;;;;;;;51.87;26.67;;;;;;;-3.59;100.00;98163.75;5060800;28;20202;-64
2023/02/16 00:02:59;;;;;;;59.17;29.47;;;;;;;-3.53;100.00;98165.22;5049610;28;20316;-66
2023/02/16 00:05:28;;;;;;;66.47;28.17;;;;;;;-3.56;100.00;98166.22;5061466;28;20203;-64
2023/02/16 00:07:58;;;;;;;55.67;27.53;;;;;;;-3.54;100.00;98160.94;5063696;28;20380;-66
2023/02/16 00:10:29;;;;;;;72.63;30.23;;;;;;;-3.61;100.00;98168.16;5046959;28;20303;-64
2023/02/16 00:15:42;;;;;;;55.20;26.00;;;;;;;-3.53;100.00;98158.28;5013187;28;20237;-63
2023/02/16 00:18:16;;;;;;;43.90;25.43;;;;;;;-3.46;100.00;98161.41;5046542;28;20305;-65
2023/02/16 00:20:43;;;;;;;49.40;26.57;;;;;;;-3.43;100.00;98157.84;5061979;28;20674;-64
2023/02/16 00:23:12;;;;;;;53.77;28.50;;;;;;;-3.43;100.00;98155.25;5064644;28;20226;-66
2023/02/16 00:25:40;;;;;;;55.93;28.33;;;;;;;-3.49;100.00;98154.66;5042465;28;20242;-64
2023/02/16 00:28:14;;;;;;;74.37;29.50;;;;;;;-3.52;100.00;98151.34;5063604;28;20213;-64
2023/02/16 00:30:42;;;;;;;47.17;27.47;;;;;;;-3.58;100.00;98149.91;5010848;28;21239;-64
2023/02/16 00:33:14;;;;;;;59.77;28.53;;;;;;;-3.57;100.00;98151.56;5048555;28;20226;-66
2023/02/16 00:35:41;;;;;;;86.13;31.60;;;;;;;-3.60;100.00;98153.47;5061758;28;20210;-64
2023/02/16 00:38:09;;;;;;;67.13;28.87;;;;;;;-3.65;100.00;98149.34;5067821;28;20218;-66
2023/02/16 00:40:38;;;;;;;59.53;27.07;;;;;;;-3.68;100.00;98136.53;5051330;28;20305;-63
2023/02/16 00:43:06;;;;;;;79.03;29.37;;;;;;;-3.58;100.00;98142.13;5061444;28;20252;-65
2023/02/16 00:45:37;;;;;;;61.10;28.67;;;;;;;-3.67;100.00;98143.38;5012924;28;20338;-63
2023/02/16 00:48:04;;;;;;;76.30;29.43;;;;;;;-3.68;100.00;98148.63;5045206;28;20230;-66
2023/02/16 00:50:34;;;;;;;52.13;27.80;;;;;;;-3.59;100.00;98140.44;5059611;28;20206;-64
2023/02/16 00:53:02;;;;;;;101.83;33.37;;;;;;;-3.68;100.00;98143.44;5062697;28;20222;-66
2023/02/16 00:55:32;;;;;;;61.63;27.73;;;;;;;-3.70;100.00;98147.84;5063603;28;20210;-64
2023/02/16 00:58:03;;;;;;;67.83;27.57;;;;;;;-3.69;100.00;98144.34;5050310;28;20245;-64
2023/02/16 01:00:34;;;;;;;63.70;29.47;;;;;;;-3.70;100.00;98134.91;5017240;28;20206;-63
2023/02/16 01:03:05;;;;;;;68.50;28.33;;;;;;;-3.74;100.00;98138.56;5043927;28;20884;-65
2023/02/16 01:05:33;;;;;;;66.10;27.40;;;;;;;-3.74;100.00;98136.81;5065641;28;20613;-64
2023/02/16 01:13:38;;;;;;;61.40;27.90;;;;;;;-3.66;100.00;98126.94;5048591;28;20325;-63
2023/02/16 01:16:12;;;;;;;87.57;29.27;;;;;;;-3.83;100.00;98117.34;5025388;28;20602;-65
2023/02/16 01:18:40;;;;;;;86.30;29.40;;;;;;;-3.74;100.00;98128.19;5048059;28;20349;-64
2023/02/16 01:21:07;;;;;;;56.33;26.97;;;;;;;-3.78;100.00;98122.31;5067601;28;20210;-64
2023/02/16 01:23:35;;;;;;;107.50;35.20;;;;;;;-3.80;100.00;98118.94;5066796;28;20230;-64
2023/02/16 01:26:04;;;;;;;75.07;27.83;;;;;;;-3.81;100.00;98125.88;5068721;28;20518;-67
2023/02/16 01:28:35;;;;;;;61.33;29.37;;;;;;;-3.88;100.00;98114.13;5046708;28;20206;-64
2023/02/16 01:31:04;;;;;;;115.60;31.63;;;;;;;-3.82;100.00;98126.78;5023901;28;20480;-65
2023/02/16 01:33:33;;;;;;;63.80;29.80;;;;;;;-3.75;100.00;98123.91;5063200;28;20215;-64
2023/02/16 01:36:00;;;;;;;77.13;29.67;;;;;;;-3.73;100.00;98124.69;5056111;28;20525;-66
2023/02/16 01:38:28;;;;;;;86.97;33.80;;;;;;;-3.75;100.00;98126.50;5064179;28;20225;-63
2023/02/16 01:41:05;;;;;;;58.40;28.50;;;;;;;-3.78;100.00;98115.38;5054147;28;21579;-63
2023/02/16 01:43:42;;;;;;;62.33;29.90;;;;;;;-3.69;100.00;98129.66;5057507;28;20371;-63
2023/02/16 01:46:12;;;;;;;54.33;28.07;;;;;;;-3.70;100.00;98125.41;5066466;28;20234;-65
2023/02/16 01:48:40;;;;;;;61.33;26.97;;;;;;;-3.65;100.00;98127.75;5005373;28;20491;-63
2023/02/16 01:51:14;;;;;;;51.60;25.83;;;;;;;-3.70;100.00;98121.94;5041424;28;20605;-63
2023/02/16 01:53:44;;;;;;;64.67;27.37;;;;;;;-3.74;100.00;98126.44;5060012;28;20222;-63
2023/02/16 01:56:20;;;;;;;59.33;27.43;;;;;;;-3.72;100.00;98132.41;5068851;28;20385;-65
2023/02/16 01:58:51;;;;;;;79.57;30.93;;;;;;;-3.81;100.00;98118.13;5063555;28;20248;-65
2023/02/16 02:01:40;;;;;;;62.73;27.73;;;;;;;-3.80;100.00;98109.44;5048796;28;20214;-66
2023/02/16 02:07:02;;;;;;;66.93;28.47;;;;;;;-3.76;100.00;98109.28;5030456;28;20199;-62
2023/02/16 02:09:35;;;;;;;72.57;30.47;;;;;;;-3.74;100.00;98112.66;5063033;28;20213;-65
2023/02/16 02:12:09;;;;;;;56.03;28.07;;;;;;;-3.73;100.00;98104.81;5065093;28;20222;-63
2023/02/16 02:14:39;;;;;;;74.47;29.07;;;;;;;-3.73;100.00;98093.59;5064807;28;20206;-64
2023/02/16 02:17:11;;;;;;;56.50;27.27;;;;;;;-3.74;100.00;98086.75;5046784;28;20210;-65
2023/02/16 02:19:48;;;;;;;76.47;30.33;;;;;;;-3.84;100.00;98089.78;5002493;28;20570;-68
2023/02/16 02:23:30;;;;;;;59.00;28.17;;;;;;;-3.83;100.00;98091.44;5062103;28;20593;-68
2023/02/16 02:26:43;;;;;;;50.30;26.47;;;;;;;-3.70;100.00;98096.06;5043481;28;20225;-66
2023/02/16 02:29:27;;;;;;;56.20;26.23;;;;;;;-3.65;100.00;98091.50;5065318;28;20198;-66
2023/02/16 02:32:01;;;;;;;56.63;30.63;;;;;;;-3.67;100.00;98093.31;5049067;28;20222;-66
2023/02/16 02:34:37;;;;;;;55.03;28.00;;;;;;;-3.71;100.00;98087.47;5018357;28;20627;-65
2023/02/16 02:37:11;;;;;;;77.27;28.83;;;;;;;-3.76;100.00;98096.34;5043659;28;20533;-63
2023/02/16 02:39:46;;;;;;;67.77;27.57;;;;;;;-3.74;100.00;98090.19;5064645;28;20213;-65
2023/02/16 02:42:18;;;;;;;69.83;27.50;;;;;;;-3.73;100.00;98088.44;5064181;28;20435;-65
2023/02/16 02:44:50;;;;;;;59.73;28.97;;;;;;;-3.75;100.00;98079.88;5062267;28;20210;-67
2023/02/16 02:47:18;;;;;;;58.60;27.57;;;;;;;-3.73;100.00;98078.91;5043302;28;20452;-67
2023/02/16 02:49:50;;;;;;;62.50;28.57;;;;;;;-3.68;100.00;98070.91;5015126;28;20689;-65
2023/02/16 02:52:18;;;;;;;61.30;27.43;;;;;;;-3.64;100.00;98072.44;5044861;28;20237;-66
2023/02/16 03:03:11;;;;;;;54.03;27.07;;;;;;;-3.68;100.00;98068.31;5048775;28;20782;-66
2023/02/16 03:05:41;;;;;;;68.57;28.93;;;;;;;-3.68;100.00;98071.75;5019657;28;20210;-65
2023/02/16 03:08:13;;;;;;;52.03;27.43;;;;;;;-3.68;100.00;98064.00;5049370;28;20257;-65
2023/02/16 03:13:32;;;;;;;56.90;29.03;;;;;;;-3.61;100.00;98072.28;5067505;28;20411;-66
2023/02/16 03:16:03;;;;;;;56.80;29.13;;;;;;;-3.64;100.00;98072.44;5064236;28;20222;-65
2023/02/16 03:29:39;;;;;;;55.93;26.23;;;;;;;-3.65;100.00;98073.34;5064768;28;20195;-66
2023/02/16 03:32:08;;;;;;;77.07;29.57;;;;;;;-3.68;100.00;98073.50;5043998;28;20230;-65
2023/02/16 03:34:37;;;;;;;57.73;28.57;;;;;;;-3.67;100.00;98073.44;5049645;28;20534;-67
2023/02/16 03:37:05;;;;;;;51.03;27.13;;;;;;;-3.67;100.00;98078.63;5015729;28;20682;-65
2023/02/16 03:40:26;;;;;;;54.73;27.50;;;;;;;-3.66;100.00;98075.13;5044431;28;20611;-67
2023/02/16 03:42:23;;;;;;;50.27;26.80;;;;;;;-3.63;100.00;98074.97;5060859;28;20481;-67
2023/02/16 03:44:50;;;;;;;59.67;28.07;;;;;;;-3.63;100.00;98071.53;5056770;28;20203;-67
2023/02/16 03:47:19;;;;;;;52.23;26.20;;;;;;;-3.66;100.00;98066.50;5059667;28;20206;-66
2023/02/16 03:49:47;;;;;;;61.97;26.43;;;;;;;-3.51;100.00;98083.06;5063430;28;20729;-67
2023/02/16 03:52:15;;;;;;;51.40;27.47;;;;;;;-3.60;100.00;98084.34;4993014;28;21069;-65
2023/02/16 03:54:42;;;;;;;62.27;27.30;;;;;;;-3.64;100.00;98086.25;5043187;28;20206;-67
2023/02/16 03:57:10;;;;;;;57.40;27.97;;;;;;;-3.56;100.00;98091.06;5060548;28;20645;-64
2023/02/16 03:59:38;;;;;;;60.40;29.80;;;;;;;-3.53;100.00;98090.94;5066389;28;20225;-67
2023/02/16 04:02:05;;;;;;;60.27;28.47;;;;;;;-3.50;100.00;98082.16;5063374;28;20451;-65
2023/02/16 04:04:35;;;;;;;56.07;28.33;;;;;;;-3.49;100.00;98094.19;5067858;28;20194;-67
2023/02/16 04:07:03;;;;;;;81.13;31.33;;;;;;;-3.60;100.00;98094.69;5015285;28;20206;-65
2023/02/16 04:09:31;;;;;;;70.67;28.47;;;;;;;-3.59;100.00;98093.81;5035067;28;20206;-66
2023/02/16 04:14:44;;;;;;;66.73;29.30;;;;;;;-3.67;100.00;98085.53;5059499;28;20202;-69
2023/02/16 04:17:11;;;;;;;117.70;32.93;;;;;;;-3.64;100.00;98080.22;5040710;28;20206;-64
2023/02/16 04:19:40;;;;;;;61.27;28.03;;;;;;;-3.63;100.00;98071.53;5061276;28;20233;-68
2023/02/16 04:22:08;;;;;;;62.60;27.77;;;;;;;-3.62;100.00;98075.78;5013039;28;20229;-63
2023/02/16 04:24:36;;;;;;;64.97;27.57;;;;;;;-3.65;100.00;98071.63;5029247;28;20214;-64
2023/02/16 04:27:04;;;;;;;55.63;27.10;;;;;;;-3.60;100.00;98071.38;5063139;28;20204;-65
2023/02/16 04:29:31;;;;;;;58.97;26.63;;;;;;;-3.57;100.00;98070.41;5041925;28;20413;-64
2023/02/16 04:31:59;;;;;;;69.93;28.53;;;;;;;-3.56;100.00;98069.50;5042317;28;20294;-64
2023/02/16 04:34:27;;;;;;;57.13;26.40;;;;;;;-3.60;100.00;98067.97;5041449;28;20301;-66
2023/02/16 04:36:56;;;;;;;57.17;27.57;;;;;;;-3.61;100.00;98064.53;5039389;28;20210;-66
2023/02/16 04:39:23;;;;;;;61.27;27.90;;;;;;;-3.55;100.00;98061.66;4992738;28;20222;-66
2023/02/16 04:41:51;;;;;;;54.67;28.47;;;;;;;-3.59;100.00;98067.91;5060667;28;20834;-64
2023/02/16 04:44:19;;;;;;;57.63;26.87;;;;;;;-3.52;100.00;98065.84;5066365;28;20202;-67
2023/02/16 04:46:46;;;;;;;51.17;26.40;;;;;;;-3.60;100.00;98055.84;5054511;28;20210;-64
2023/02/16 04:49:14;;;;;;;74.10;29.53;;;;;;;-3.66;100.00;98063.91;5058393;28;21020;-62
2023/02/16 04:51:42;;;;;;;79.00;28.27;;;;;;;-3.73;100.00;98059.94;5038234;28;20314;-65
2023/02/16 04:54:11;;;;;;;86.43;30.03;;;;;;;-3.72;100.00;98059.88;5014313;28;20229;-64
2023/02/16 04:56:39;;;;;;;84.60;29.67;;;;;;;-3.72;100.00;98056.44;5031508;28;21076;-67
2023/02/16 04:59:06;;;;;;;71.77;29.20;;;;;;;-3.70;100.00;98052.00;5057126;28;20230;-64
2023/02/16 05:01:34;;;;;;;122.63;35.27;;;;;;;-3.72;100.00;98052.09;5048571;28;20230;-66
2023/02/16 05:04:01;;;;;;;124.63;31.20;;;;;;;-3.75;100.00;98038.44;5034180;28;20401;-64
2023/02/16 05:06:29;;;;;;;121.10;33.23;;;;;;;-3.72;100.00;98053.84;5028571;28;20504;-67
2023/02/16 05:08:56;;;;;;;70.37;28.73;;;;;;;-3.71;100.00;98051.19;5007990;28;20209;-66
2023/02/16 05:17:03;;;;;;;90.53;28.60;;;;;;;-3.66;100.00;98063.91;5043555;28;20363;-66
2023/02/16 05:19:30;;;;;;;67.20;29.13;;;;;;;-3.70;100.00;98054.59;5032278;28;20223;-65
2023/02/16 05:21:58;;;;;;;92.00;32.90;;;;;;;-3.61;100.00;98056.75;5048332;28;20254;-68
2023/02/16 05:24:25;;;;;;;78.83;29.03;;;;;;;-3.65;100.00;98060.41;4987059;28;20509;-64
2023/02/16 05:26:56;;;;;;;86.33;29.63;;;;;;;-3.58;100.00;98069.59;5028453;28;20198;-67
2023/02/16 05:29:24;;;;;;;82.23;28.97;;;;;;;-3.68;100.00;98057.97;5017379;28;20204;-66
2023/02/16 05:31:52;;;;;;;64.27;25.97;;;;;;;-3.68;100.00;98070.91;5049770;28;20226;-66
2023/02/16 05:34:20;;;;;;;69.53;28.70;;;;;;;-3.67;100.00;98064.81;5027665;28;20203;-66
2023/02/16 05:36:47;;;;;;;83.57;27.77;;;;;;;-3.65;100.00;98065.59;5045063;28;20668;-67
2023/02/16 05:39:15;;;;;;;72.30;30.00;;;;;;;-3.69;100.00;98044.19;5004386;28;20254;-65
2023/02/16 05:41:42;;;;;;;70.70;29.30;;;;;;;-3.65;100.00;98053.47;4998519;28;20669;-66
2023/02/16 05:44:12;;;;;;;82.73;29.60;;;;;;;-3.67;100.00;98051.88;5036789;28;20499;-66
2023/02/16 05:46:40;;;;;;;82.33;30.10;;;;;;;-3.68;100.00;98056.22;5045043;28;20625;-64
2023/02/16 05:49:08;;;;;;;94.43;29.33;;;;;;;-3.71;100.00;98055.53;5040799;28;20641;-65
2023/02/16 05:51:37;;;;;;;91.80;31.30;;;;;;;-3.69;100.00;98056.28;5032044;28;20339;-66
2023/02/16 05:54:05;;;;;;;97.10;32.07;;;;;;;-3.68;100.00;98056.22;5028266;28;20234;-65
2023/02/16 05:56:32;;;;;;;84.37;29.07;;;;;;;-3.65;100.00;98057.81;5016072;28;20452;-67
2023/02/16 05:59:00;;;;;;;57.23;27.60;;;;;;;-3.58;100.00;98060.97;5054175;28;20230;-68
2023/02/16 06:01:29;;;;;;;71.83;30.47;;;;;;;-3.55;100.00;98079.81;5066182;28;20229;-66
2023/02/16 06:03:57;;;;;;;75.47;31.30;;;;;;;-3.57;100.00;98076.44;5040631;28;20301;-66
2023/02/16 06:06:24;;;;;;;74.07;31.13;;;;;;;-3.51;100.00;98089.09;5041687;28;20420;-68
2023/02/16 06:08:52;;;;;;;56.70;28.73;;;;;;;-3.47;100.00;98110.50;5048526;28;20210;-66
2023/02/16 06:11:38;;;;;;;99.50;31.77;;;;;;;-3.38;100.00;98117.00;4998952;28;20195;-66
2023/02/16 06:14:07;;;;;;;58.50;27.10;;;;;;;-3.40;100.00;98135.25;5052645;28;20214;-68
2023/02/16 06:16:38;;;;;;;53.43;26.30;;;;;;;-3.41;100.00;98135.31;5050882;28;21066;-65
2023/02/16 06:19:06;;;;;;;64.17;28.10;;;;;;;-3.54;100.00;98143.66;5066438;28;20294;-67
2023/02/16 06:21:35;;;;;;;57.33;28.57;;;;;;;-3.42;100.00;98141.41;5045472;28;20882;-66
2023/02/16 06:24:03;;;;;;;60.23;30.33;;;;;;;-3.62;100.00;98132.78;5048494;28;20210;-67
2023/02/16 06:26:31;;;;;;;58.70;28.13;;;;;;;-3.61;100.00;98144.00;5027633;28;20642;-65
2023/02/16 06:28:59;;;;;;;53.47;27.43;;;;;;;-3.55;100.00;98134.22;5069763;28;20547;-66
2023/02/16 06:31:27;;;;;;;53.43;29.43;;;;;;;-3.61;100.00;98124.09;5050058;28;20213;-65
2023/02/16 06:33:56;;;;;;;59.83;28.40;;;;;;;-3.59;100.00;98127.50;5065914;28;20199;-67
2023/02/16 06:36:25;;;;;;;66.67;28.53;;;;;;;-3.59;100.00;98119.72;5055630;28;20452;-65
2023/02/16 06:38:52;;;;;;;71.83;29.33;;;;;;;-3.55;100.00;98117.81;5043706;28;20217;-67
2023/02/16 06:41:30;;;;;;;60.53;29.53;;;;;;;-3.56;100.00;98126.50;5062371;28;20218;-65
2023/02/16 06:43:59;;;;;;;70.33;32.17;;;;;;;-3.57;100.00;98125.66;5019338;28;20219;-67
2023/02/16 06:46:27;;;;;;;56.73;28.60;;;;;;;-3.47;100.00;98118.28;5032494;28;20380;-65
2023/02/16 06:48:56;;;;;;;59.33;29.30;;;;;;;-3.47;100.00;98123.47;5064321;28;20431;-65
2023/02/16 06:51:24;;;;;;;65.90;30.93;;;;;;;-3.46;100.00;98127.72;5048288;28;20300;-66
2023/02/16 06:53:51;;;;;;;61.70;31.57;;;;;;;-3.42;100.00;98129.25;5043127;28;20236;-65
2023/02/16 06:56:19;;;;;;;64.93;31.60;;;;;;;-3.37;100.00;98139.41;5046332;28;20563;-66
2023/02/16 06:58:46;;;;;;;78.10;32.90;;;;;;;-3.31;100.00;98127.94;5018108;28;20219;-64
2023/02/16 07:01:15;;;;;;;83.43;32.17;;;;;;;-3.36;100.00;98134.19;5055311;28;20226;-65
2023/02/16 07:03:43;;;;;;;68.47;31.60;;;;;;;-3.38;100.00;98122.19;5064695;28;20493;-64
2023/02/16 07:06:12;;;;;;;71.70;30.27;;;;;;;-3.31;100.00;98123.56;5048034;28;20221;-65
2023/02/16 07:08:39;;;;;;;60.83;30.37;;;;;;;-3.33;100.00;98132.34;5049183;28;20699;-65
2023/02/16 07:11:07;;;;;;;78.10;33.93;;;;;;;-3.31;100.00;98131.34;5044608;28;20214;-65
2023/02/16 07:13:35;;;;;;;63.53;30.57;;;;;;;-3.23;100.00;98126.63;5064744;28;20226;-65
2023/02/16 07:16:03;;;;;;;70.07;32.83;;;;;;;-3.32;100.00;98119.31;5007048;28;20218;-65
2023/02/16 07:18:31;;;;;;;66.17;31.27;;;;;;;-3.35;100.00;98128.09;5064277;28;20282;-66
2023/02/16 07:20:58;;;;;;;60.30;30.60;;;;;;;-3.35;100.00;98127.22;5064811;28;20378;-64
2023/02/16 07:23:27;;;;;;;66.03;32.23;;;;;;;-3.22;100.00;98132.66;5048097;28;21018;-65
2023/02/16 07:25:55;;;;;;;67.30;28.83;;;;;;;-3.11;100.00;98135.56;5048274;28;20203;-66
2023/02/16 07:28:23;;;;;;;58.50;30.37;;;;;;;-3.16;100.00;98140.13;5051104;28;20431;-65
2023/02/16 07:30:50;;;;;;;78.97;31.03;;;;;;;-3.19;100.00;98140.28;5023821;28;20433;-64
2023/02/16 07:33:19;;;;;;;69.43;32.63;;;;;;;-3.23;100.00;98147.38;5053082;28;20951;-64
2023/02/16 07:35:47;;;;;;;66.13;29.70;;;;;;;-3.25;100.00;98153.56;5064837;28;20625;-65
2023/02/16 07:38:14;;;;;;;66.00;29.00;;;;;;;-3.24;100.00;98148.28;5053688;28;20208;-63
2023/02/16 07:40:43;;;;;;;67.53;31.37;;;;;;;-3.23;100.00;98149.97;5049362;28;20219;-65
2023/02/16 07:43:11;;;;;;;81.57;30.83;;;;;;;-3.18;100.00;98147.16;5041976;28;20245;-64
2023/02/16 07:45:38;;;;;;;76.97;30.67;;;;;;;-3.24;100.00;98139.69;5063931;28;20201;-64
2023/02/16 07:48:06;;;;;;;69.93;30.23;;;;;;;-3.10;100.00;98141.59;5020754;28;20309;-63
2023/02/16 07:50:33;;;;;;;59.63;30.47;;;;;;;-3.17;100.00;98141.06;5064184;28;20637;-64
2023/02/16 07:53:01;;;;;;;54.93;28.80;;;;;;;-3.18;100.00;98141.97;5048180;28;20317;-63
2023/02/16 07:55:30;;;;;;;64.37;31.00;;;;;;;-3.06;100.00;98148.31;5044210;28;21162;-63
2023/02/16 07:57:58;;;;;;;60.63;29.77;;;;;;;-3.21;100.00;98140.38;5048360;28;20202;-63
2023/02/16 08:00:26;;;;;;;57.53;30.27;;;;;;;-3.14;100.00;98143.50;5064224;28;21133;-63
2023/02/16 08:02:54;;;;;;;59.93;30.30;;;;;;;-3.10;100.00;98144.19;5024003;28;20245;-63
2023/02/16 08:05:22;;;;;;;58.23;28.97;;;;;;;-3.00;100.00;98154.97;5072042;28;20481;-63
2023/02/16 08:07:50;;;;;;;62.70;31.13;;;;;;;-2.88;100.00;98146.59;5050082;28;20201;-63
2023/02/16 08:10:18;;;;;;;56.90;29.10;;;;;;;-2.84;100.00;98152.44;5059862;28;20210;-62
2023/02/16 08:12:45;;;;;;;60.03;28.97;;;;;;;-3.01;100.00;98154.13;5026406;28;20217;-63
2023/02/16 08:15:15;;;;;;;68.20;32.07;;;;;;;-3.05;100.00;98144.81;5061134;28;20210;-63
2023/02/16 08:17:43;;;;;;;74.80;31.60;;;;;;;-3.11;100.00;98145.13;5020860;28;20732;-63
2023/02/16 08:20:11;;;;;;;57.47;30.23;;;;;;;-3.14;100.00;98143.50;5063779;28;20236;-63
2023/02/16 08:22:38;;;;;;;69.83;31.40;;;;;;;-3.08;100.00;98139.78;5047706;28;20230;-64
2023/02/16 08:25:07;;;;;;;54.57;28.47;;;;;;;-3.01;100.00;98151.53;5063734;28;20202;-63
2023/02/16 08:27:34;;;;;;;57.10;31.30;;;;;;;-2.97;100.00;98139.25;5040799;28;20216;-63
2023/02/16 08:30:02;;;;;;;55.57;30.17;;;;;;;-2.94;100.00;98145.13;5055778;28;20198;-62
2023/02/16 08:32:31;;;;;;;53.53;31.63;;;;;;;-2.87;100.00;98145.66;5022882;28;20233;-63
2023/02/16 08:34:59;;;;;;;58.10;30.93;;;;;;;-2.87;100.00;98144.81;5066583;28;20217;-63
2023/02/16 08:37:27;;;;;;;60.97;30.20;;;;;;;-2.85;100.00;98162.00;5058738;28;20498;-63
2023/02/16 08:39:55;;;;;;;62.60;30.80;;;;;;;-2.92;100.00;98156.25;5052848;28;20603;-63
2023/02/16 08:42:22;;;;;;;57.17;31.60;;;;;;;-2.83;100.00;98159.34;5070197;28;20793;-64
2023/02/16 08:44:50;;;;;;;50.37;29.17;;;;;;;-2.88;100.00;98156.09;5043175;28;20206;-62
2023/02/16 08:47:19;;;;;;;63.47;31.23;;;;;;;-2.94;100.00;98158.09;5015272;28;20218;-63
2023/02/16 08:49:48;;;;;;;63.43;32.17;;;;;;;-2.96;100.00;98159.91;5063611;28;20244;-63
2023/02/16 08:52:16;;;;;;;72.83;31.87;;;;;;;-3.00;100.00;98163.56;5059583;28;20232;-63
2023/02/16 08:54:44;;;;;;;54.03;30.43;;;;;;;-2.98;100.00;98164.34;5048776;28;20330;-63
2023/02/16 08:57:12;;;;;;;56.27;31.33;;;;;;;-2.96;100.00;98153.91;5060426;28;20198;-63
2023/02/16 08:59:39;;;;;;;57.43;29.40;;;;;;;-2.92;100.00;98164.03;5051911;28;20463;-63
2023/02/16 09:02:07;;;;;;;67.90;30.97;;;;;;;-2.88;100.00;98164.75;5067086;28;20325;-63
2023/02/16 09:04:35;;;;;;;65.53;31.40;;;;;;;-2.88;100.00;98164.75;5026580;28;20209;-63
2023/02/16 09:07:05;;;;;;;60.73;33.10;;;;;;;-2.86;100.00;98168.09;5064840;28;20214;-63
2023/02/16 09:09:32;;;;;;;57.47;31.13;;;;;;;-2.67;100.00;98173.22;5051752;28;20334;-63
2023/02/16 09:12:00;;;;;;;61.43;31.17;;;;;;;-2.74;100.00;98168.41;5065147;28;20214;-63
2023/02/16 09:14:28;;;;;;;56.20;31.93;;;;;;;-2.82;100.00;98166.19;5063673;28;20520;-63
2023/02/16 09:16:56;;;;;;;57.73;30.70;;;;;;;-2.89;100.00;98167.41;5044753;28;20209;-64
2023/02/16 09:19:24;;;;;;;56.63;31.93;;;;;;;-2.76;100.00;98163.31;5009537;28;20416;-65
2023/02/16 09:21:55;;;;;;;62.33;31.83;;;;;;;-2.82;100.00;98163.59;5062826;28;20610;-64
2023/02/16 09:24:24;;;;;;;53.67;30.97;;;;;;;-2.76;100.00;98176.28;5060362;28;20702;-64
2023/02/16 09:26:51;;;;;;;54.17;31.47;;;;;;;-2.71;100.00;98173.44;5049494;28;20229;-63
2023/02/16 09:29:20;;;;;;;62.33;29.40;;;;;;;-2.73;100.00;98176.13;5064642;28;20295;-64
2023/02/16 09:31:48;;;;;;;51.57;29.27;;;;;;;-2.77;100.00;98178.00;5046779;28;20236;-64
2023/02/16 09:34:18;;;;;;;56.00;31.17;;;;;;;-2.78;100.00;98175.50;5025676;28;20422;-65
2023/02/16 09:36:46;;;;;;;55.97;30.67;;;;;;;-2.59;100.00;98180.63;5068588;28;20198;-64
2023/02/16 09:39:15;;;;;;;57.60;33.07;;;;;;;-2.53;100.00;98180.31;5064699;28;20224;-64
2023/02/16 09:42:00;;;;;;;67.67;33.67;;;;;;;-2.63;100.00;98176.50;5055991;28;20222;-63
2023/02/16 09:44:38;;;;;;;60.60;30.80;;;;;;;-2.51;100.00;98178.47;5069636;28;20437;-64
2023/02/16 09:47:11;;;;;;;55.63;29.43;;;;;;;-2.39;100.00;98164.03;5044775;28;20232;-64
2023/02/16 09:49:41;;;;;;;62.27;32.80;;;;;;;-2.45;100.00;98169.56;5062606;28;20198;-64
2023/02/16 09:52:13;;;;;;;57.67;30.03;;;;;;;-2.41;100.00;98173.66;5019449;28;20933;-63
2023/02/16 09:54:46;;;;;;;88.10;30.23;;;;;;;-2.39;100.00;98161.44;5066363;28;20979;-64
2023/02/16 09:57:21;;;;;;;66.00;32.57;;;;;;;-2.26;100.00;98178.97;5046611;28;20211;-63
2023/02/16 09:59:52;;;;;;;54.73;30.30;;;;;;;-2.21;100.00;98184.78;5072399;28;20510;-63
2023/02/16 10:02:34;;;;;;;58.73;30.60;;;;;;;-2.21;100.00;98185.63;5045339;28;20841;-64
2023/02/16 10:05:19;;;;;;;52.27;29.23;;;;;;;-2.32;100.00;98180.13;5049155;28;20620;-65
2023/02/16 10:07:59;;;;;;;58.53;33.27;;;;;;;-2.31;100.00;98181.81;5065132;28;20232;-63
2023/02/16 10:10:32;;;;;;;55.63;29.30;;;;;;;-2.31;100.00;98188.78;5063761;28;20426;-64
2023/02/16 10:13:06;;;;;;;57.00;31.07;;;;;;;-2.23;100.00;98197.00;5051031;28;20226;-64
2023/02/16 10:15:35;;;;;;;64.73;33.00;;;;;;;-2.07;100.00;98197.91;5059691;28;20286;-64
2023/02/16 10:18:07;;;;;;;57.60;33.13;;;;;;;-2.26;100.00;98189.38;5046997;28;20213;-64
2023/02/16 10:20:36;;;;;;;52.73;30.30;;;;;;;-2.10;100.00;98181.63;5068347;28;20206;-65
2023/02/16 10:23:09;;;;;;;54.30;31.83;;;;;;;-2.10;100.00;98181.63;5025270;28;20252;-65
2023/02/16 10:25:42;;;;;;;50.23;30.67;;;;;;;-1.70;100.00;98176.94;5073236;28;20198;-65
2023/02/16 10:28:16;;;;;;;52.70;30.63;;;;;;;-1.97;100.00;98169.66;5046017;28;20790;-65
2023/02/16 10:30:49;;;;;;;55.93;31.40;;;;;;;-1.89;100.00;98179.66;5067791;28;20205;-66
2023/02/16 10:33:25;;;;;;;58.17;33.50;;;;;;;-1.95;100.00;98173.03;5037308;28;21004;-65
2023/02/16 10:35:59;;;;;;;52.67;31.90;;;;;;;-1.90;100.00;98168.41;5065835;28;20202;-66
2023/02/16 10:38:31;;;;;;;50.30;30.13;;;;;;;-1.93;100.00;98160.78;5020265;28;20420;-67
2023/02/16 10:41:03;;;;;;;53.70;28.03;;;;;;;-1.90;100.00;98160.63;5066814;28;20191;-66
2023/02/16 10:43:42;;;;;;;53.37;30.70;;;;;;;-1.62;100.00;98169.56;5066876;28;20300;-67
2023/02/16 10:46:10;;;;;;;52.03;31.57;;;;;;;-1.56;100.00;98171.00;5061088;28;20457;-65
2023/02/16 10:48:38;;;;;;;56.83;30.47;;;;;;;-1.42;100.00;98167.66;5052700;28;20203;-65
2023/02/16 10:51:08;;;;;;;58.87;32.43;;;;;;;-1.54;100.00;98166.53;5059813;28;20217;-64
2023/02/16 10:53:40;;;;;;;54.47;32.70;;;;;;;-1.39;100.00;98169.22;5025220;28;20226;-65
2023/02/16 10:56:43;;;;;;;50.63;30.63;;;;;;;-1.54;100.00;98163.09;5068687;28;20225;-63
2023/02/16 10:59:16;;;;;;;49.80;31.47;;;;;;;-1.41;100.00;98160.66;5066047;28;20209;-63
2023/02/16 11:01:45;;;;;;;53.73;32.97;;;;;;;-1.40;100.00;98149.34;5060904;28;20202;-65
2023/02/16 11:04:35;;;;;;;47.70;29.93;;;;;;;-1.35;100.00;98145.56;5056760;28;20206;-63
2023/02/16 11:07:05;;;;;;;45.93;28.97;;;;;;;-1.34;100.00;98134.25;5066871;28;20309;-63
2023/02/16 11:09:33;;;;;;;47.93;30.73;;;;;;;-1.33;100.00;98137.69;5026360;28;20206;-65
2023/02/16 11:12:01;;;;;;;45.83;30.57;;;;;;;-1.41;100.00;98135.53;5062236;28;20788;-63
2023/02/16 11:14:31;;;;;;;47.67;31.23;;;;;;;-1.42;100.00;98143.38;5063404;28;20285;-64
2023/02/16 11:17:07;;;;;;;42.33;28.53;;;;;;;-1.37;100.00;98126.63;5063897;28;20201;-63
2023/02/16 11:19:35;;;;;;;43.87;28.77;;;;;;;-1.21;100.00;98134.41;5049891;28;20697;-66
2023/02/16 11:22:03;;;;;;;37.97;29.07;;;;;;;-1.05;100.00;98133.53;5066667;28;20266;-63
2023/02/16 11:24:32;;;;;;;47.77;28.70;;;;;;;-1.03;100.00;98134.28;5020769;28;21263;-64
2023/02/16 11:27:02;;;;;;;42.70;27.63;;;;;;;-1.30;100.00;98134.94;5060512;28;20210;-63
2023/02/16 11:29:31;;;;;;;43.07;29.93;;;;;;;-1.25;100.00;98132.91;5064678;28;20425;-65
2023/02/16 11:31:59;;;;;;;37.00;27.13;;;;;;;-1.42;100.00;98138.19;5068141;28;20469;-63
2023/02/16 11:34:31;;;;;;;40.27;26.43;;;;;;;-1.31;100.00;98138.47;5066378;28;20198;-65
2023/02/16 11:37:05;;;;;;;35.33;25.67;;;;;;;-1.04;100.00;98130.00;5043055;28;20202;-63
2023/02/16 11:39:36;;;;;;;39.37;26.73;;;;;;;-0.94;100.00;98125.97;5024285;28;20865;-63
2023/02/16 11:42:07;;;;;;;40.13;27.50;;;;;;;-1.06;100.00;98122.31;5069214;28;20589;-64
2023/02/16 11:44:38;;;;;;;34.20;24.83;;;;;;;-0.85;100.00;98121.97;5068659;28;21003;-67
2023/02/16 11:47:07;;;;;;;33.27;25.70;;;;;;;-0.89;100.00;98113.53;5063605;28;20212;-65
2023/02/16 11:49:37;;;;;;;35.27;26.70;;;;;;;-1.06;100.00;98108.44;5062698;28;20914;-64
2023/02/16 11:52:26;;;;;;;35.40;26.03;;;;;;;-1.23;100.00;98106.81;5044351;28;20229;-64
2023/02/16 11:55:08;;;;;;;41.60;26.20;;;;;;;-1.27;100.00;98110.50;5067135;28;20607;-64
2023/02/16 11:57:37;;;;;;;40.23;26.97;;;;;;;-1.31;100.00;98112.47;5054580;28;20217;-68
2023/02/16 12:00:17;;;;;;;40.13;26.40;;;;;;;-1.33;100.00;98111.69;5066316;28;20206;-66
2023/02/16 12:03:06;;;;;;;33.67;25.37;;;;;;;-1.39;100.00;98105.06;5070990;28;20429;-68
2023/02/16 12:05:40;;;;;;;35.00;24.93;;;;;;;-1.15;100.00;98107.19;5065178;28;20225;-68